Time;durP1;ratioP1;P1;durP2;ratioP2;P2;SDS_P1;SDS_P2;PMS_P1;PMS_P2;Temp;Humidity;BMP_temperature;BMP_pressure;BME280_temperature;BME280_humidity;BME280_pressure;Samples;Min_cycle;Max_cycle;Signal;HPM_P1;HPM_P2
2021/12/10 00:00:49;;;;;;;;;;;20.70;99.90;;;;;;5054209;28;19913;-73
2021/12/10 00:03:19;;;;;;;;;;;20.80;99.90;;;;;;5046140;28;19923;-73
2021/12/10 00:05:51;;;;;;;;;;;20.90;99.90;;;;;;5054582;28;19913;-73
2021/12/10 00:08:18;;;;;;;;;;;21.10;99.90;;;;;;5058246;28;20307;-74
2021/12/10 00:10:47;;;;;;;;;;;21.20;99.90;;;;;;5070772;28;19919;-74
2021/12/10 00:13:14;;;;;;;;;;;21.20;99.90;;;;;;5069644;28;20382;-73
2021/12/10 00:15:41;;;;;;;;;;;21.30;99.90;;;;;;5070438;28;19913;-74
2021/12/10 00:18:09;;;;;;;;;;;21.50;99.90;;;;;;5070538;28;19927;-73
2021/12/10 00:20:37;;;;;;;;;;;21.70;99.90;;;;;;5068430;28;19938;-73
2021/12/10 00:23:09;;;;;;;;;;;21.60;99.90;;;;;;5070660;28;19918;-73
2021/12/10 00:25:39;;;;;;;;;;;21.50;99.90;;;;;;5070413;28;19913;-72
2021/12/10 00:28:16;;;;;;;;;;;21.30;99.90;;;;;;5070595;28;19939;-73
2021/12/10 00:30:58;;;;;;;;;;;21.20;99.90;;;;;;5070322;28;19917;-72
2021/12/10 00:33:25;;;;;;;;;;;21.00;99.90;;;;;;5064134;28;19913;-73
2021/12/10 00:35:53;;;;;;;;;;;20.80;99.90;;;;;;5070086;28;19913;-73
2021/12/10 00:38:20;;;;;;;;;;;20.70;99.90;;;;;;5070839;28;19920;-73
2021/12/10 00:40:47;;;;;;;;;;;20.80;99.90;;;;;;5070530;28;19912;-73
2021/12/10 00:43:14;;;;;;;;;;;20.70;99.90;;;;;;5067037;28;20260;-73
2021/12/10 00:45:40;;;;;;;;;;;20.50;99.90;;;;;;5068233;28;19912;-72
2021/12/10 00:48:07;;;;;;;;;;;20.10;99.90;;;;;;5070090;28;19958;-73
2021/12/10 00:50:36;;;;;;;;;;;19.60;99.90;;;;;;5069979;28;19921;-72
2021/12/10 00:53:04;;;;;;;;;;;19.10;99.90;;;;;;5069816;28;20015;-72
2021/12/10 00:55:31;;;;;;;;;;;18.50;99.90;;;;;;5069338;28;20306;-72
2021/12/10 00:57:58;;;;;;;;;;;17.70;99.90;;;;;;5069931;28;19971;-72
2021/12/10 01:00:28;;;;;;;;;;;17.20;99.90;;;;;;5069992;28;20679;-72
2021/12/10 01:02:54;;;;;;;;;;;16.60;99.90;;;;;;5073161;28;19912;-72
2021/12/10 01:05:22;;;;;;;;;;;16.20;99.90;;;;;;5073668;28;20439;-73
2021/12/10 01:07:49;;;;;;;;;;;15.90;99.90;;;;;;5070944;28;19912;-72
2021/12/10 01:10:26;;;;;;;;;;;15.70;99.90;;;;;;5069898;28;19921;-73
2021/12/10 01:12:54;;;;;;;;;;;15.70;99.90;;;;;;5073826;28;19913;-72
2021/12/10 01:24:15;;;;;;;;;;;15.40;99.90;;;;;;5067869;28;19924;-72
2021/12/10 01:29:13;;;;;;;;;;;15.20;99.90;;;;;;5067205;28;19912;-72
2021/12/10 01:31:40;;;;;;;;;;;15.20;99.90;;;;;;5073325;28;19913;-73
2021/12/10 01:34:07;;;;;;;;;;;15.30;99.90;;;;;;5072832;28;19916;-73
2021/12/10 01:36:34;;;;;;;;;;;15.40;99.90;;;;;;5072613;28;19912;-72
2021/12/10 01:39:04;;;;;;;;;;;15.40;99.90;;;;;;5072390;28;20431;-73
2021/12/10 01:41:35;;;;;;;;;;;15.40;99.90;;;;;;5072037;28;19974;-73
2021/12/10 01:44:12;;;;;;;;;;;15.40;99.90;;;;;;5071279;28;19920;-73
2021/12/10 01:46:40;;;;;;;;;;;15.40;99.90;;;;;;5072702;28;20382;-73
2021/12/10 01:49:08;;;;;;;;;;;15.30;99.90;;;;;;5072351;28;20007;-73
2021/12/10 01:51:36;;;;;;;;;;;15.30;99.90;;;;;;5073402;28;19916;-73
2021/12/10 01:54:05;;;;;;;;;;;15.30;99.90;;;;;;5072639;28;19946;-73
2021/12/10 01:56:34;;;;;;;;;;;15.40;99.90;;;;;;5071949;28;19913;-73
2021/12/10 01:59:02;;;;;;;;;;;15.20;99.90;;;;;;5072633;28;19928;-73
2021/12/10 02:01:31;;;;;;;;;;;15.20;99.90;;;;;;5072889;28;20390;-73
2021/12/10 02:03:59;;;;;;;;;;;15.20;99.90;;;;;;5072474;28;19964;-73
2021/12/10 02:06:26;;;;;;;;;;;15.20;99.90;;;;;;5072757;28;19912;-73
2021/12/10 02:08:53;;;;;;;;;;;15.20;99.90;;;;;;5070319;28;20371;-73
2021/12/10 02:11:20;;;;;;;;;;;15.10;99.90;;;;;;5070827;28;20418;-73
2021/12/10 02:13:47;;;;;;;;;;;15.20;99.90;;;;;;5071108;28;19920;-73
2021/12/10 02:16:14;;;;;;;;;;;15.30;99.90;;;;;;5072638;28;19982;-73
2021/12/10 02:18:40;;;;;;;;;;;15.30;99.90;;;;;;5072634;28;19921;-73
2021/12/10 02:21:10;;;;;;;;;;;15.40;99.90;;;;;;5072343;28;20219;-73
2021/12/10 02:23:38;;;;;;;;;;;15.50;99.90;;;;;;5072818;28;19918;-72
2021/12/10 02:26:06;;;;;;;;;;;15.40;99.90;;;;;;5071621;28;19908;-72
2021/12/10 02:28:33;;;;;;;;;;;15.50;99.90;;;;;;5072658;28;19917;-72
2021/12/10 02:31:00;;;;;;;;;;;15.50;99.90;;;;;;5072037;28;20414;-72
2021/12/10 02:33:27;;;;;;;;;;;15.70;99.90;;;;;;5064080;28;20022;-72
2021/12/10 02:35:54;;;;;;;;;;;15.80;99.90;;;;;;5071702;28;19909;-73
2021/12/10 02:38:22;;;;;;;;;;;15.90;99.90;;;;;;5072088;28;19920;-73
2021/12/10 02:40:50;;;;;;;;;;;15.90;99.90;;;;;;5071889;28;19928;-73
2021/12/10 02:43:18;;;;;;;;;;;15.80;99.90;;;;;;5069711;28;20513;-74
2021/12/10 02:45:50;;;;;;;;;;;15.80;99.90;;;;;;5071753;28;19938;-73
2021/12/10 02:48:17;;;;;;;;;;;15.90;99.90;;;;;;5072117;28;19916;-73
2021/12/10 02:50:44;;;;;;;;;;;15.90;99.90;;;;;;5071887;28;19954;-73
2021/12/10 02:53:14;;;;;;;;;;;16.10;99.90;;;;;;5071667;28;20282;-73
2021/12/10 02:55:41;;;;;;;;;;;16.40;99.90;;;;;;5071538;28;19909;-72
2021/12/10 02:58:10;;;;;;;;;;;16.50;99.90;;;;;;5071599;28;20440;-73
2021/12/10 03:00:45;;;;;;;;;;;16.50;99.90;;;;;;5071729;28;20343;-74
2021/12/10 03:03:11;;;;;;;;;;;16.70;99.90;;;;;;5071583;28;19913;-73
2021/12/10 03:05:38;;;;;;;;;;;16.60;99.90;;;;;;5071512;28;20010;-74
2021/12/10 03:08:05;;;;;;;;;;;16.50;99.90;;;;;;5070848;28;19927;-73
2021/12/10 03:10:33;;;;;;;;;;;16.50;99.90;;;;;;5070339;28;19913;-74
2021/12/10 03:13:00;;;;;;;;;;;16.50;99.90;;;;;;5071303;28;19920;-74
2021/12/10 03:15:28;;;;;;;;;;;16.50;99.90;;;;;;5071806;28;19912;-73
2021/12/10 03:17:55;;;;;;;;;;;16.40;99.90;;;;;;5070613;28;19970;-73
2021/12/10 03:20:24;;;;;;;;;;;16.50;99.90;;;;;;5071654;28;20415;-73
2021/12/10 03:22:51;;;;;;;;;;;16.50;99.90;;;;;;5070922;28;19920;-74
2021/12/10 03:25:18;;;;;;;;;;;16.20;99.90;;;;;;5071403;28;20051;-74
2021/12/10 03:27:45;;;;;;;;;;;16.10;99.90;;;;;;5071019;28;20022;-74
2021/12/10 03:30:15;;;;;;;;;;;16.10;99.90;;;;;;5071477;28;19920;-73
2021/12/10 03:32:43;;;;;;;;;;;16.10;99.90;;;;;;5070912;28;19913;-74
2021/12/10 03:35:13;;;;;;;;;;;16.10;99.90;;;;;;5071471;28;20286;-73
2021/12/10 03:37:41;;;;;;;;;;;15.90;99.90;;;;;;5069475;28;19920;-73
2021/12/10 03:40:10;;;;;;;;;;;15.80;99.90;;;;;;5071104;28;19963;-73
2021/12/10 03:42:37;;;;;;;;;;;15.80;99.90;;;;;;5067406;28;20375;-73
2021/12/10 03:45:05;;;;;;;;;;;15.80;99.90;;;;;;5071078;28;20378;-73
2021/12/10 03:47:31;;;;;;;;;;;15.90;99.90;;;;;;5069703;28;19966;-72
2021/12/10 03:49:58;;;;;;;;;;;15.90;99.90;;;;;;5070920;28;20003;-72
2021/12/10 03:52:25;;;;;;;;;;;15.90;99.90;;;;;;5070969;28;19987;-72
2021/12/10 03:54:51;;;;;;;;;;;15.90;99.90;;;;;;5070974;28;19916;-72
2021/12/10 03:57:18;;;;;;;;;;;15.90;99.90;;;;;;5071048;28;19946;-72
2021/12/10 03:59:45;;;;;;;;;;;15.90;99.90;;;;;;5070581;28;20260;-72
2021/12/10 04:02:12;;;;;;;;;;;15.90;99.90;;;;;;5071058;28;19913;-73
2021/12/10 04:04:41;;;;;;;;;;;15.80;99.90;;;;;;5070512;28;19913;-72
2021/12/10 04:07:11;;;;;;;;;;;15.80;99.90;;;;;;5071167;28;20667;-72
2021/12/10 04:09:38;;;;;;;;;;;15.80;99.90;;;;;;5070237;28;19966;-71
2021/12/10 04:12:07;;;;;;;;;;;15.70;99.90;;;;;;5062548;28;19971;-72
2021/12/10 04:14:34;;;;;;;;;;;15.80;99.90;;;;;;5070372;28;19913;-72
2021/12/10 04:17:00;;;;;;;;;;;15.80;99.90;;;;;;5070972;28;20015;-73
2021/12/10 04:19:29;;;;;;;;;;;15.70;99.90;;;;;;5070623;28;19952;-72
2021/12/10 04:21:57;;;;;;;;;;;15.80;99.90;;;;;;5070355;28;19912;-72
2021/12/10 04:24:25;;;;;;;;;;;15.90;99.90;;;;;;5070519;28;20015;-73
2021/12/10 04:26:52;;;;;;;;;;;15.80;99.90;;;;;;5070560;28;19912;-73
2021/12/10 04:29:22;;;;;;;;;;;15.90;99.90;;;;;;5070401;28;20281;-74
2021/12/10 04:31:50;;;;;;;;;;;16.10;99.90;;;;;;5070391;28;20465;-74
2021/12/10 04:34:18;;;;;;;;;;;16.20;99.90;;;;;;5070370;28;19912;-74
2021/12/10 04:36:45;;;;;;;;;;;16.30;99.90;;;;;;5071605;28;19916;-74
2021/12/10 04:39:11;;;;;;;;;;;16.30;99.90;;;;;;5074401;28;19920;-74
2021/12/10 04:41:38;;;;;;;;;;;16.30;99.90;;;;;;5074456;28;19917;-74
2021/12/10 04:44:05;;;;;;;;;;;16.20;99.90;;;;;;5069705;28;19959;-74
2021/12/10 04:46:32;;;;;;;;;;;16.10;99.90;;;;;;5074422;28;20413;-74
2021/12/10 04:49:01;;;;;;;;;;;16.00;99.90;;;;;;5074455;28;19916;-73
2021/12/10 04:51:29;;;;;;;;;;;16.00;99.90;;;;;;5074122;28;19924;-74
2021/12/10 04:53:56;;;;;;;;;;;16.00;99.90;;;;;;5074466;28;19917;-74
2021/12/10 04:56:24;;;;;;;;;;;16.10;99.90;;;;;;5074166;28;20407;-74
2021/12/10 04:58:51;;;;;;;;;;;16.10;99.90;;;;;;5074517;28;19981;-74
2021/12/10 05:01:17;;;;;;;;;;;16.10;99.90;;;;;;5074599;28;19920;-74
2021/12/10 05:03:44;;;;;;;;;;;16.10;99.90;;;;;;5077491;28;19916;-74
2021/12/10 05:06:11;;;;;;;;;;;16.20;99.90;;;;;;5077749;28;20466;-74
2021/12/10 05:08:38;;;;;;;;;;;16.10;99.90;;;;;;5077885;28;20011;-74
2021/12/10 05:11:06;;;;;;;;;;;16.20;99.90;;;;;;5077706;28;19912;-74
2021/12/10 05:13:34;;;;;;;;;;;16.20;99.90;;;;;;5080208;28;19958;-73
2021/12/10 05:16:00;;;;;;;;;;;16.10;99.90;;;;;;5080180;28;19913;-74
2021/12/10 05:18:30;;;;;;;;;;;16.10;99.90;;;;;;5078949;28;20411;-72
2021/12/10 05:20:58;;;;;;;;;;;16.20;99.90;;;;;;5078250;28;19912;-73
2021/12/10 05:23:24;;;;;;;;;;;16.30;99.90;;;;;;5077134;28;19916;-72
2021/12/10 05:25:51;;;;;;;;;;;16.30;99.90;;;;;;5075651;28;19962;-73
2021/12/10 05:28:18;;;;;;;;;;;16.30;99.90;;;;;;5074576;28;20009;-73
2021/12/10 05:30:46;;;;;;;;;;;16.40;99.90;;;;;;5074748;28;19913;-73
2021/12/10 05:33:16;;;;;;;;;;;16.40;99.90;;;;;;5074077;28;20003;-72
2021/12/10 05:35:45;;;;;;;;;;;16.50;99.90;;;;;;5074331;28;19954;-72
2021/12/10 05:38:12;;;;;;;;;;;16.50;99.90;;;;;;5073498;28;20356;-72
2021/12/10 05:40:39;;;;;;;;;;;16.60;99.90;;;;;;5073971;28;20268;-72
2021/12/10 05:43:06;;;;;;;;;;;16.70;99.90;;;;;;5067281;28;19917;-72
2021/12/10 05:45:32;;;;;;;;;;;16.80;99.90;;;;;;5073635;28;19912;-72
2021/12/10 05:47:59;;;;;;;;;;;16.90;99.90;;;;;;5069386;28;19919;-72
2021/12/10 05:50:27;;;;;;;;;;;17.00;99.90;;;;;;5072988;28;20313;-72
2021/12/10 05:52:54;;;;;;;;;;;17.00;99.90;;;;;;5069517;28;19927;-72
2021/12/10 05:55:21;;;;;;;;;;;17.10;99.90;;;;;;5071240;28;20447;-72
2021/12/10 05:57:48;;;;;;;;;;;17.10;99.90;;;;;;5070483;28;19922;-72
2021/12/10 06:00:17;;;;;;;;;;;17.10;99.90;;;;;;5071160;28;19917;-72
2021/12/10 06:02:43;;;;;;;;;;;17.20;99.90;;;;;;5070696;28;20292;-72
2021/12/10 06:05:10;;;;;;;;;;;17.30;99.90;;;;;;5071164;28;19917;-72
2021/12/10 06:07:38;;;;;;;;;;;17.40;99.90;;;;;;5064056;28;19971;-72
2021/12/10 06:10:06;;;;;;;;;;;17.50;99.90;;;;;;5070323;28;19977;-73
2021/12/10 06:12:33;;;;;;;;;;;17.50;99.90;;;;;;5070804;28;20003;-72
2021/12/10 06:15:00;;;;;;;;;;;17.50;99.90;;;;;;5070277;28;20030;-72
2021/12/10 06:17:27;;;;;;;;;;;17.50;99.90;;;;;;5069985;28;19913;-72
2021/12/10 06:19:53;;;;;;;;;;;17.50;99.90;;;;;;5069850;28;19927;-72
2021/12/10 06:22:20;;;;;;;;;;;17.50;99.90;;;;;;5070582;28;19946;-73
2021/12/10 06:24:47;;;;;;;;;;;17.50;99.90;;;;;;5070219;28;19923;-73
2021/12/10 06:27:13;;;;;;;;;;;17.50;99.90;;;;;;5070635;28;19976;-72
2021/12/10 06:29:42;;;;;;;;;;;17.50;99.90;;;;;;5070303;28;20011;-72
2021/12/10 06:32:09;;;;;;;;;;;17.40;99.90;;;;;;5069591;28;19962;-71
2021/12/10 06:34:36;;;;;;;;;;;17.50;99.90;;;;;;5070057;28;19919;-72
2021/12/10 06:37:05;;;;;;;;;;;17.50;99.90;;;;;;5070040;28;20359;-72
2021/12/10 06:39:31;;;;;;;;;;;17.50;99.90;;;;;;5069859;28;20377;-72
2021/12/10 06:41:58;;;;;;;;;;;17.50;99.90;;;;;;5066469;28;19917;-72
2021/12/10 06:44:25;;;;;;;;;;;17.50;99.90;;;;;;5064310;28;19919;-72
2021/12/10 06:46:52;;;;;;;;;;;17.50;99.90;;;;;;5069160;28;19997;-72
2021/12/10 06:49:19;;;;;;;;;;;17.50;99.90;;;;;;5052041;28;20401;-72
2021/12/10 06:51:46;;;;;;;;;;;17.40;99.90;;;;;;5069291;28;19980;-72
2021/12/10 06:54:12;;;;;;;;;;;17.50;99.90;;;;;;5070120;28;19916;-72
2021/12/10 06:56:39;;;;;;;;;;;17.50;99.90;;;;;;5068865;28;20260;-72
2021/12/10 06:59:08;;;;;;;;;;;17.50;99.90;;;;;;5069106;28;19927;-72
2021/12/10 07:01:36;;;;;;;;;;;17.50;99.90;;;;;;5069315;28;19919;-72
2021/12/10 07:04:04;;;;;;;;;;;17.50;99.90;;;;;;5069793;28;19912;-73
2021/12/10 07:06:31;;;;;;;;;;;17.50;99.90;;;;;;5069215;28;20356;-72
2021/12/10 07:08:59;;;;;;;;;;;17.50;99.90;;;;;;5069317;28;20595;-73
2021/12/10 07:11:26;;;;;;;;;;;17.50;99.90;;;;;;5069258;28;20015;-73
2021/12/10 07:13:55;;;;;;;;;;;17.50;99.90;;;;;;5069304;28;19923;-73
2021/12/10 07:16:22;;;;;;;;;;;17.40;99.90;;;;;;5069016;28;20322;-73
2021/12/10 07:18:49;;;;;;;;;;;17.40;99.90;;;;;;5069340;28;19959;-72
2021/12/10 07:21:16;;;;;;;;;;;17.30;99.90;;;;;;5069138;28;19988;-72
2021/12/10 07:23:43;;;;;;;;;;;17.20;99.90;;;;;;5066859;28;20003;-72
2021/12/10 07:26:11;;;;;;;;;;;17.10;99.90;;;;;;5068966;28;19964;-72
2021/12/10 07:28:38;;;;;;;;;;;16.90;99.90;;;;;;5069287;28;20051;-72
2021/12/10 07:31:06;;;;;;;;;;;16.60;99.90;;;;;;5069240;28;20355;-73
2021/12/10 07:33:33;;;;;;;;;;;16.40;99.90;;;;;;5069168;28;19923;-73
2021/12/10 07:36:00;;;;;;;;;;;16.20;99.90;;;;;;5068889;28;19917;-72
2021/12/10 07:38:26;;;;;;;;;;;16.10;99.90;;;;;;5068695;28;19920;-73
2021/12/10 07:40:53;;;;;;;;;;;16.10;99.90;;;;;;5069370;28;19912;-73
2021/12/10 07:43:21;;;;;;;;;;;16.00;99.90;;;;;;5060851;28;19927;-73
2021/12/10 07:45:51;;;;;;;;;;;16.10;99.90;;;;;;5069091;28;19969;-73
2021/12/10 07:48:20;;;;;;;;;;;16.10;99.90;;;;;;5068550;28;20419;-73
2021/12/10 07:50:53;;;;;;;;;;;16.20;99.90;;;;;;5067581;28;19958;-73
2021/12/10 07:53:23;;;;;;;;;;;16.30;99.90;;;;;;5068760;28;19917;-72
2021/12/10 07:55:50;;;;;;;;;;;16.30;99.90;;;;;;5067867;28;20301;-72
2021/12/10 07:58:17;;;;;;;;;;;16.30;99.90;;;;;;5068690;28;19946;-72
2021/12/10 08:00:46;;;;;;;;;;;16.30;99.90;;;;;;5068999;28;19916;-72
2021/12/10 08:03:13;;;;;;;;;;;16.30;99.90;;;;;;5068511;28;19960;-72
2021/12/10 08:05:42;;;;;;;;;;;16.40;99.90;;;;;;5069542;28;20328;-72
2021/12/10 08:08:09;;;;;;;;;;;16.40;99.90;;;;;;5069123;28;19920;-72
2021/12/10 08:10:36;;;;;;;;;;;16.40;99.90;;;;;;5055210;28;19913;-72
2021/12/10 08:13:03;;;;;;;;;;;16.40;99.90;;;;;;5065121;28;19909;-72
2021/12/10 08:15:30;;;;;;;;;;;16.40;99.90;;;;;;5058286;28;19916;-72
2021/12/10 08:17:57;;;;;;;;;;;16.40;99.90;;;;;;5056979;28;20374;-72
2021/12/10 08:20:26;;;;;;;;;;;16.40;99.90;;;;;;5058794;28;19921;-73
2021/12/10 08:22:53;;;;;;;;;;;16.50;99.90;;;;;;5057116;28;19909;-73
2021/12/10 08:25:20;;;;;;;;;;;16.50;99.90;;;;;;5058937;28;20275;-73
2021/12/10 08:27:48;;;;;;;;;;;16.40;99.90;;;;;;5056811;28;19959;-72
2021/12/10 08:30:16;;;;;;;;;;;16.60;99.90;;;;;;5058259;28;19963;-72
2021/12/10 08:32:43;;;;;;;;;;;16.50;99.90;;;;;;5056794;28;19994;-72
2021/12/10 08:35:12;;;;;;;;;;;16.60;99.90;;;;;;5057166;28;20332;-73
2021/12/10 08:37:39;;;;;;;;;;;16.50;99.90;;;;;;5056932;28;19912;-72
2021/12/10 08:40:08;;;;;;;;;;;16.60;99.90;;;;;;5057437;28;20006;-73
2021/12/10 08:42:34;;;;;;;;;;;16.50;99.90;;;;;;5061860;28;20263;-72
2021/12/10 08:45:01;;;;;;;;;;;16.50;99.90;;;;;;5056524;28;19916;-72
2021/12/10 08:47:28;;;;;;;;;;;16.50;99.90;;;;;;5057739;28;20334;-72
2021/12/10 08:49:56;;;;;;;;;;;16.50;99.90;;;;;;5056611;28;19944;-72
2021/12/10 08:52:22;;;;;;;;;;;16.50;99.90;;;;;;5057528;28;19913;-72
2021/12/10 08:54:49;;;;;;;;;;;16.50;99.90;;;;;;5056792;28;20348;-72
2021/12/10 08:57:16;;;;;;;;;;;16.50;99.90;;;;;;5057841;28;20271;-72
2021/12/10 08:59:43;;;;;;;;;;;16.50;99.90;;;;;;5056242;28;19923;-72
2021/12/10 09:02:11;;;;;;;;;;;16.60;99.90;;;;;;5058138;28;19913;-72
2021/12/10 09:04:38;;;;;;;;;;;16.50;99.90;;;;;;5056110;28;20275;-72
2021/12/10 09:07:06;;;;;;;;;;;16.60;99.90;;;;;;5058514;28;19921;-72
2021/12/10 09:09:34;;;;;;;;;;;16.60;99.90;;;;;;5069582;28;19965;-72
2021/12/10 09:12:02;;;;;;;;;;;16.60;99.90;;;;;;5073393;28;20066;-72
2021/12/10 09:14:35;;;;;;;;;;;16.60;99.90;;;;;;5073849;28;19952;-72
2021/12/10 09:17:03;;;;;;;;;;;16.60;99.90;;;;;;5073616;28;19916;-71
2021/12/10 09:19:30;;;;;;;;;;;16.60;99.90;;;;;;5065808;28;19921;-72
2021/12/10 09:21:57;;;;;;;;;;;16.60;99.90;;;;;;5072395;28;19920;-72
2021/12/10 09:24:24;;;;;;;;;;;16.60;99.90;;;;;;5073876;28;19913;-72
2021/12/10 09:26:55;;;;;;;;;;;16.60;99.90;;;;;;5073540;28;19920;-72
2021/12/10 09:29:22;;;;;;;;;;;16.60;99.90;;;;;;5073183;28;19913;-72
2021/12/10 09:31:49;;;;;;;;;;;16.60;99.90;;;;;;5073173;28;19956;-72
2021/12/10 09:34:16;;;;;;;;;;;16.50;99.90;;;;;;5073392;28;20636;-72
2021/12/10 09:36:44;;;;;;;;;;;16.60;99.90;;;;;;5072978;28;19950;-72
2021/12/10 09:39:12;;;;;;;;;;;16.50;99.90;;;;;;5071864;28;19920;-72
2021/12/10 09:41:39;;;;;;;;;;;16.60;99.90;;;;;;5073438;28;20397;-72
2021/12/10 09:44:07;;;;;;;;;;;16.60;99.90;;;;;;5073130;28;20269;-72
2021/12/10 09:46:35;;;;;;;;;;;16.50;99.90;;;;;;5073171;28;19913;-72
2021/12/10 09:49:03;;;;;;;;;;;16.50;99.90;;;;;;5073015;28;19912;-72
2021/12/10 09:51:31;;;;;;;;;;;16.50;99.90;;;;;;5073111;28;20011;-72
2021/12/10 09:54:01;;;;;;;;;;;16.50;99.90;;;;;;5072591;28;19921;-72
2021/12/10 09:56:28;;;;;;;;;;;16.50;99.90;;;;;;5073397;28;19920;-72
2021/12/10 09:58:56;;;;;;;;;;;16.50;99.90;;;;;;5072785;28;19925;-72
2021/12/10 10:01:37;;;;;;;;;;;16.50;99.90;;;;;;5073131;28;19970;-73
2021/12/10 10:04:04;;;;;;;;;;;16.50;99.90;;;;;;5072147;28;19912;-72
2021/12/10 10:06:33;;;;;;;;;;;16.40;99.90;;;;;;5072819;28;20388;-72
2021/12/10 10:09:00;;;;;;;;;;;16.50;99.90;;;;;;5068374;28;19977;-73
2021/12/10 10:11:29;;;;;;;;;;;16.50;99.90;;;;;;5055005;28;19913;-73
2021/12/10 10:13:56;;;;;;;;;;;16.40;99.90;;;;;;5056500;28;19927;-73
2021/12/10 10:16:24;;;;;;;;;;;16.50;99.90;;;;;;5055512;28;20444;-73
2021/12/10 10:18:51;;;;;;;;;;;16.40;99.90;;;;;;5037733;28;19925;-73
2021/12/10 10:21:20;;;;;;;;;;;16.40;99.90;;;;;;5054371;28;19966;-72
2021/12/10 10:23:47;;;;;;;;;;;16.40;99.90;;;;;;5055664;28;19925;-73
2021/12/10 10:26:19;;;;;;;;;;;16.40;99.90;;;;;;5054921;28;19958;-73
2021/12/10 10:28:45;;;;;;;;;;;16.30;99.90;;;;;;5038271;28;20279;-72
2021/12/10 10:31:17;;;;;;;;;;;16.30;99.90;;;;;;5055062;28;20352;-72
2021/12/10 10:33:45;;;;;;;;;;;16.20;99.90;;;;;;5054773;28;20272;-72
2021/12/10 10:36:19;;;;;;;;;;;16.10;99.90;;;;;;5054680;28;20039;-73
2021/12/10 10:38:47;;;;;;;;;;;16.10;99.90;;;;;;5053149;28;19967;-72
2021/12/10 10:41:17;;;;;;;;;;;16.10;99.90;;;;;;5054598;28;19924;-73
2021/12/10 10:43:43;;;;;;;;;;;16.10;99.90;;;;;;5054586;28;19964;-73
2021/12/10 10:46:11;;;;;;;;;;;16.10;99.90;;;;;;5055083;28;20015;-72
2021/12/10 10:48:39;;;;;;;;;;;16.10;99.90;;;;;;5054570;28;19916;-72
2021/12/10 10:51:11;;;;;;;;;;;16.10;99.90;;;;;;5063961;28;19916;-72
2021/12/10 10:53:43;;;;;;;;;;;16.10;99.90;;;;;;5054619;28;20363;-72
2021/12/10 10:56:12;;;;;;;;;;;16.10;99.90;;;;;;5063334;28;19917;-72
2021/12/10 10:58:41;;;;;;;;;;;16.10;99.90;;;;;;5054196;28;19955;-72
2021/12/10 11:01:23;;;;;;;;;;;16.10;99.90;;;;;;5055207;28;20298;-72
2021/12/10 11:04:15;;;;;;;;;;;16.20;99.90;;;;;;5054595;28;20003;-73
2021/12/10 11:06:47;;;;;;;;;;;16.10;99.90;;;;;;5044624;28;19967;-72
2021/12/10 11:09:20;;;;;;;;;;;16.10;99.90;;;;;;5064014;28;19967;-72
2021/12/10 11:11:50;;;;;;;;;;;16.10;99.90;;;;;;5069349;28;20380;-72
2021/12/10 11:14:22;;;;;;;;;;;16.10;99.90;;;;;;5069544;28;19921;-73
2021/12/10 11:16:51;;;;;;;;;;;16.10;99.90;;;;;;5068847;28;19981;-72
2021/12/10 11:19:19;;;;;;;;;;;16.20;99.90;;;;;;5068722;28;19994;-72
2021/12/10 11:21:47;;;;;;;;;;;16.10;99.90;;;;;;5069158;28;19912;-72
2021/12/10 11:24:16;;;;;;;;;;;16.10;99.90;;;;;;5069711;28;19948;-72
2021/12/10 11:27:04;;;;;;;;;;;16.10;99.90;;;;;;5068308;28;20019;-72
2021/12/10 11:29:31;;;;;;;;;;;16.10;99.90;;;;;;5068686;28;19966;-73
2021/12/10 11:31:59;;;;;;;;;;;16.10;99.90;;;;;;5068462;28;20192;-73
2021/12/10 11:34:44;;;;;;;;;;;16.10;99.90;;;;;;5069155;28;19917;-72
2021/12/10 11:37:12;;;;;;;;;;;16.10;99.90;;;;;;5068920;28;19939;-72
2021/12/10 11:39:45;;;;;;;;;;;16.10;99.90;;;;;;5068349;28;19928;-72
2021/12/10 11:42:31;;;;;;;;;;;16.10;99.90;;;;;;5068694;28;19923;-72
2021/12/10 11:45:28;;;;;;;;;;;16.10;99.90;;;;;;5061276;28;19920;-72
2021/12/10 11:48:05;;;;;;;;;;;16.10;99.90;;;;;;5068849;28;20278;-72
2021/12/10 11:50:33;;;;;;;;;;;16.10;99.90;;;;;;5068520;28;19923;-72
2021/12/10 11:53:04;;;;;;;;;;;16.10;99.90;;;;;;5069177;28;19924;-72
2021/12/10 11:55:33;;;;;;;;;;;16.10;99.90;;;;;;5068652;28;20349;-72
2021/12/10 11:58:00;;;;;;;;;;;16.10;99.90;;;;;;5068504;28;20580;-73
2021/12/10 12:00:29;;;;;;;;;;;16.00;99.90;;;;;;5067070;28;20381;-72
2021/12/10 12:02:58;;;;;;;;;;;16.00;99.90;;;;;;5068915;28;20359;-72
2021/12/10 12:05:27;;;;;;;;;;;16.10;99.90;;;;;;5058370;28;19917;-73
2021/12/10 12:08:06;;;;;;;;;;;16.00;99.90;;;;;;5068586;28;19912;-73
2021/12/10 12:10:39;;;;;;;;;;;16.00;99.90;;;;;;5054209;28;19920;-72
2021/12/10 12:15:56;;;;;;;;;;;16.00;99.90;;;;;;5052115;28;19947;-72
2021/12/10 12:18:29;;;;;;;;;;;16.10;99.90;;;;;;5050651;28;19920;-72
2021/12/10 12:26:36;;;;;;;;;;;16.00;99.90;;;;;;5049772;28;19919;-73
2021/12/10 12:29:13;;;;;;;;;;;16.00;99.90;;;;;;5050553;28;19921;-72
2021/12/10 12:31:48;;;;;;;;;;;16.00;99.90;;;;;;5043447;28;20389;-72
2021/12/10 12:34:34;;;;;;;;;;;16.00;99.90;;;;;;5052839;28;19999;-73
2021/12/10 12:37:02;;;;;;;;;;;16.00;99.90;;;;;;5050609;28;19964;-72
2021/12/10 12:39:29;;;;;;;;;;;16.00;99.90;;;;;;5052153;28;19921;-73
2021/12/10 12:41:56;;;;;;;;;;;16.00;99.90;;;;;;5051072;28;19955;-73
2021/12/10 12:44:23;;;;;;;;;;;16.00;99.90;;;;;;5053439;28;19912;-73
2021/12/10 12:47:13;;;;;;;;;;;16.00;99.90;;;;;;5057591;28;19988;-72
2021/12/10 12:49:49;;;;;;;;;;;15.90;99.90;;;;;;5045845;28;19917;-72
2021/12/10 12:52:19;;;;;;;;;;;16.00;99.90;;;;;;5050874;28;21262;-72
2021/12/10 12:55:04;;;;;;;;;;;15.90;99.90;;;;;;5074181;28;19916;-72
2021/12/10 12:57:38;;;;;;;;;;;16.00;99.90;;;;;;5053295;28;20328;-72
2021/12/10 13:00:07;;;;;;;;;;;15.90;99.90;;;;;;5054232;28;19982;-72
2021/12/10 13:02:34;;;;;;;;;;;16.00;99.90;;;;;;5055573;28;19912;-72
2021/12/10 13:05:01;;;;;;;;;;;15.90;99.90;;;;;;5054885;28;19917;-72
2021/12/10 13:07:29;;;;;;;;;;;16.00;99.90;;;;;;5054386;28;19947;-72
2021/12/10 13:10:00;;;;;;;;;;;16.00;99.90;;;;;;5070932;28;19924;-73
2021/12/10 13:12:45;;;;;;;;;;;;;;;;;;;;;
2021/12/10 13:15:10;;;;;;;;;;;16.00;99.90;;;;;;5065177;28;19953;-72
2021/12/10 13:17:57;;;;;;;;;;;16.00;99.90;;;;;;5071293;28;19916;-72
2021/12/10 13:20:26;;;;;;;;;;;16.00;99.90;;;;;;5071643;28;19971;-72
2021/12/10 13:22:55;;;;;;;;;;;16.00;99.90;;;;;;5070088;28;19924;-73
2021/12/10 13:25:25;;;;;;;;;;;15.90;99.90;;;;;;5071745;28;19912;-73
2021/12/10 13:27:52;;;;;;;;;;;16.00;99.90;;;;;;5071550;28;19927;-72
2021/12/10 13:30:21;;;;;;;;;;;16.00;99.90;;;;;;5071212;28;19924;-72
2021/12/10 13:32:49;;;;;;;;;;;15.90;99.90;;;;;;5071568;28;19916;-72
2021/12/10 13:35:16;;;;;;;;;;;16.00;99.90;;;;;;5071617;28;19918;-72
2021/12/10 13:37:43;;;;;;;;;;;15.90;99.90;;;;;;5071409;28;19927;-73
2021/12/10 13:40:11;;;;;;;;;;;15.90;99.90;;;;;;5071539;28;19935;-72
2021/12/10 13:42:38;;;;;;;;;;;15.90;99.90;;;;;;5070962;28;19912;-72
2021/12/10 13:45:06;;;;;;;;;;;15.90;99.90;;;;;;5071753;28;19916;-72
2021/12/10 13:47:38;;;;;;;;;;;15.90;99.90;;;;;;5070975;28;19926;-72
2021/12/10 13:50:11;;;;;;;;;;;15.90;99.90;;;;;;5071295;28;19970;-73
2021/12/10 13:52:43;;;;;;;;;;;15.90;99.90;;;;;;5071071;28;20007;-72
2021/12/10 13:55:15;;;;;;;;;;;16.00;99.90;;;;;;5071246;28;19913;-72
2021/12/10 13:57:42;;;;;;;;;;;15.90;99.90;;;;;;5070783;28;19947;-72
2021/12/10 14:00:11;;;;;;;;;;;15.90;99.90;;;;;;5071282;28;19920;-72
2021/12/10 14:02:39;;;;;;;;;;;15.90;99.90;;;;;;5071067;28;20729;-73
2021/12/10 14:05:20;;;;;;;;;;;15.80;99.90;;;;;;5070136;28;20000;-72
2021/12/10 14:07:55;;;;;;;;;;;15.80;99.90;;;;;;5069911;28;19916;-72
2021/12/10 14:10:30;;;;;;;;;;;15.80;99.90;;;;;;5070951;28;19924;-72
2021/12/10 14:12:59;;;;;;;;;;;15.80;99.90;;;;;;5070840;28;20263;-72
2021/12/10 14:15:44;;;;;;;;;;;15.80;99.90;;;;;;5070913;28;19927;-72
2021/12/10 14:18:14;;;;;;;;;;;15.80;99.90;;;;;;5070642;28;19995;-73
2021/12/10 14:20:44;;;;;;;;;;;15.80;99.90;;;;;;5070479;28;20599;-73
2021/12/10 14:23:17;;;;;;;;;;;15.80;99.90;;;;;;5070521;28;19918;-72
2021/12/10 14:26:04;;;;;;;;;;;15.80;99.90;;;;;;5070681;28;19921;-72
2021/12/10 14:28:41;;;;;;;;;;;15.80;99.90;;;;;;5070753;28;19912;-73
2021/12/10 14:31:28;;;;;;;;;;;15.80;99.90;;;;;;5070238;28;19921;-72
2021/12/10 14:33:55;;;;;;;;;;;15.80;99.90;;;;;;5065490;28;19917;-72
2021/12/10 14:36:24;;;;;;;;;;;15.80;99.90;;;;;;5070490;28;20383;-73
2021/12/10 14:38:54;;;;;;;;;;;15.80;99.90;;;;;;5070145;28;19968;-72
2021/12/10 14:41:23;;;;;;;;;;;15.80;99.90;;;;;;5070150;28;19920;-73
2021/12/10 14:43:55;;;;;;;;;;;15.80;99.90;;;;;;5069880;28;19913;-72
2021/12/10 14:46:30;;;;;;;;;;;15.80;99.90;;;;;;5069892;28;19912;-72
2021/12/10 14:49:06;;;;;;;;;;;15.80;99.90;;;;;;5069571;28;20259;-72